Terminal Aerodrome Forecast
Issued by NWS

Home | Current Version | Previous Version | Text Only | Print | Product List | Glossary On
Versions: 1 2 3 4 5 6 7 8 9 10 11 12 13 14 15 16
000
FTAK31 PAJN 030500
TAFAKT
TAF
PAKT 030524Z 0306/0406 33010KT P6SM SCT050 SCT070
     FM031200 32004KT 6SM BR SCT025 BKN050
     FM031500 29005KT 6SM BR SCT007 BKN015 OVC030
     FM031900 31007KT P6SM SCT015 BKN035
     FM040000 34006KT P6SM SCT025 OVC050
      AMD LTD TO CLD VIS AND WIND 0306/0315=

USA.gov is the U.S. government's official web portal to all federal, state and local government web resources and services.